sensor_id;sensor_type;location;lat;lon;timestamp;temperature;humidity
21648;DHT22;10985;54.182;7.890;2022-08-02T07:24:38;18.90;99.90
21648;DHT22;10985;54.182;7.890;2022-08-02T07:27:04;19.10;99.90
21648;DHT22;10985;54.182;7.890;2022-08-02T07:29:30;19.40;99.90
21648;DHT22;10985;54.182;7.890;2022-08-02T07:31:55;19.40;99.90
21648;DHT22;10985;54.182;7.890;2022-08-02T07:34:21;19.50;99.90
21648;DHT22;10985;54.182;7.890;2022-08-02T07:36:46;19.60;99.90
21648;DHT22;10985;54.182;7.890;2022-08-02T07:39:12;19.70;99.90
21648;DHT22;10985;54.182;7.890;2022-08-02T07:41:37;19.70;99.90
21648;DHT22;10985;54.182;7.890;2022-08-02T07:44:03;19.90;99.90
21648;DHT22;10985;54.182;7.890;2022-08-02T07:46:29;19.90;99.90
21648;DHT22;10985;54.182;7.890;2022-08-02T07:48:54;20.00;99.90
21648;DHT22;10985;54.182;7.890;2022-08-02T07:51:20;20.10;99.90
21648;DHT22;10985;54.182;7.890;2022-08-02T07:53:46;20.30;99.90
21648;DHT22;10985;54.182;7.890;2022-08-02T07:56:11;20.40;99.90
21648;DHT22;10985;54.182;7.890;2022-08-02T07:58:37;20.50;99.90
21648;DHT22;10985;54.182;7.890;2022-08-02T08:01:02;20.50;99.90
21648;DHT22;10985;54.182;7.890;2022-08-02T08:03:28;20.70;99.90
21648;DHT22;10985;54.182;7.890;2022-08-02T08:05:54;20.80;99.90
21648;DHT22;10985;54.182;7.890;2022-08-02T08:08:19;21.00;99.90
21648;DHT22;10985;54.182;7.890;2022-08-02T08:10:45;21.20;99.90
21648;DHT22;10985;54.182;7.890;2022-08-02T08:13:11;21.30;99.90
21648;DHT22;10985;54.182;7.890;2022-08-02T08:15:36;21.40;99.90
21648;DHT22;10985;54.182;7.890;2022-08-02T08:18:02;21.40;99.90
21648;DHT22;10985;54.182;7.890;2022-08-02T09:19:25;24.90;99.90
21648;DHT22;10985;54.182;7.890;2022-08-02T09:56:45;27.20;99.90
21648;DHT22;10985;54.182;7.890;2022-08-02T10:04:06;28.50;99.90
21648;DHT22;10985;54.182;7.890;2022-08-02T10:08:59;29.30;99.90
21648;DHT22;10985;54.182;7.890;2022-08-02T10:13:52;30.20;99.90
21648;DHT22;10985;54.182;7.890;2022-08-02T10:16:20;30.10;99.90
21648;DHT22;10985;54.182;7.890;2022-08-02T10:18:53;30.40;99.90
21648;DHT22;10985;54.182;7.890;2022-08-02T10:21:26;30.70;99.90
21648;DHT22;10985;54.182;7.890;2022-08-02T10:24:07;30.80;99.90
21648;DHT22;10985;54.182;7.890;2022-08-02T10:26:33;31.10;99.90
21648;DHT22;10985;54.182;7.890;2022-08-02T10:28:59;31.20;99.90
21648;DHT22;10985;54.182;7.890;2022-08-02T10:31:29;31.70;99.90
21648;DHT22;10985;54.182;7.890;2022-08-02T10:33:59;32.20;99.90
21648;DHT22;10985;54.182;7.890;2022-08-02T10:36:30;32.40;99.90
21648;DHT22;10985;54.182;7.890;2022-08-02T10:38:57;32.40;99.90
21648;DHT22;10985;54.182;7.890;2022-08-02T10:41:49;32.80;99.90
21648;DHT22;10985;54.182;7.890;2022-08-02T10:44:25;32.80;99.90
21648;DHT22;10985;54.182;7.890;2022-08-02T10:46:51;32.70;99.90
21648;DHT22;10985;54.182;7.890;2022-08-02T10:49:19;32.70;99.90
21648;DHT22;10985;54.182;7.890;2022-08-02T10:54:28;32.60;99.90
21648;DHT22;10985;54.182;7.890;2022-08-02T10:56:58;32.40;99.90
21648;DHT22;10985;54.182;7.890;2022-08-02T10:59:29;32.50;99.90
21648;DHT22;10985;54.182;7.890;2022-08-02T11:01:57;32.40;99.90
21648;DHT22;10985;54.182;7.890;2022-08-02T11:07:21;32.40;99.90
21648;DHT22;10985;54.182;7.890;2022-08-02T11:09:55;32.50;99.90
21648;DHT22;10985;54.182;7.890;2022-08-02T11:12:21;32.60;99.90
21648;DHT22;10985;54.182;7.890;2022-08-02T11:15:03;32.50;99.90
21648;DHT22;10985;54.182;7.890;2022-08-02T11:17:55;32.70;99.90
21648;DHT22;10985;54.182;7.890;2022-08-02T11:20:23;33.00;99.90
21648;DHT22;10985;54.182;7.890;2022-08-02T11:22:50;32.50;99.90
21648;DHT22;10985;54.182;7.890;2022-08-02T11:27:49;32.00;99.90
21648;DHT22;10985;54.182;7.890;2022-08-02T11:30:15;31.90;99.90
21648;DHT22;10985;54.182;7.890;2022-08-02T11:32:41;32.10;99.20
21648;DHT22;10985;54.182;7.890;2022-08-02T11:35:07;31.90;99.90
21648;DHT22;10985;54.182;7.890;2022-08-02T11:37:42;31.70;99.90
21648;DHT22;10985;54.182;7.890;2022-08-02T11:40:16;32.00;99.90
21648;DHT22;10985;54.182;7.890;2022-08-02T11:42:45;32.00;99.90
21648;DHT22;10985;54.182;7.890;2022-08-02T11:45:14;31.80;99.90
21648;DHT22;10985;54.182;7.890;2022-08-02T11:47:44;31.80;99.90
21648;DHT22;10985;54.182;7.890;2022-08-02T11:50:10;31.70;99.90
21648;DHT22;10985;54.182;7.890;2022-08-02T11:52:36;32.00;99.90
21648;DHT22;10985;54.182;7.890;2022-08-02T11:55:07;31.90;99.80
21648;DHT22;10985;54.182;7.890;2022-08-02T11:57:33;31.60;99.90
21648;DHT22;10985;54.182;7.890;2022-08-02T11:59:59;31.20;99.90
21648;DHT22;10985;54.182;7.890;2022-08-02T12:02:27;32.00;99.90
21648;DHT22;10985;54.182;7.890;2022-08-02T12:04:59;31.20;99.90
21648;DHT22;10985;54.182;7.890;2022-08-02T12:07:30;31.00;99.90
21648;DHT22;10985;54.182;7.890;2022-08-02T12:10:00;30.60;99.90
21648;DHT22;10985;54.182;7.890;2022-08-02T12:12:27;30.40;99.90
21648;DHT22;10985;54.182;7.890;2022-08-02T12:14:52;30.00;99.90
21648;DHT22;10985;54.182;7.890;2022-08-02T12:17:25;29.60;99.90
21648;DHT22;10985;54.182;7.890;2022-08-02T12:20:10;29.10;99.90
21648;DHT22;10985;54.182;7.890;2022-08-02T12:22:36;28.70;99.90
21648;DHT22;10985;54.182;7.890;2022-08-02T12:25:23;28.50;99.90
21648;DHT22;10985;54.182;7.890;2022-08-02T12:27:48;28.10;99.90
21648;DHT22;10985;54.182;7.890;2022-08-02T12:30:16;27.70;99.90
21648;DHT22;10985;54.182;7.890;2022-08-02T12:32:43;27.40;99.90
21648;DHT22;10985;54.182;7.890;2022-08-02T12:35:15;27.10;99.90
21648;DHT22;10985;54.182;7.890;2022-08-02T12:37:43;26.90;99.90
21648;DHT22;10985;54.182;7.890;2022-08-02T12:43:00;26.40;99.90
21648;DHT22;10985;54.182;7.890;2022-08-02T12:45:28;26.00;99.90
21648;DHT22;10985;54.182;7.890;2022-08-02T12:47:56;25.90;99.90
21648;DHT22;10985;54.182;7.890;2022-08-02T12:50:31;25.70;99.90
21648;DHT22;10985;54.182;7.890;2022-08-02T12:55:34;25.20;99.90
21648;DHT22;10985;54.182;7.890;2022-08-02T12:58:04;24.80;99.90
21648;DHT22;10985;54.182;7.890;2022-08-02T13:00:37;24.60;99.90
21648;DHT22;10985;54.182;7.890;2022-08-02T13:03:03;24.40;99.90
21648;DHT22;10985;54.182;7.890;2022-08-02T13:05:30;24.20;99.90
21648;DHT22;10985;54.182;7.890;2022-08-02T13:07:57;24.00;99.90
21648;DHT22;10985;54.182;7.890;2022-08-02T13:10:23;23.80;99.90
21648;DHT22;10985;54.182;7.890;2022-08-02T13:12:50;23.60;99.90
21648;DHT22;10985;54.182;7.890;2022-08-02T13:15:16;23.50;99.90
21648;DHT22;10985;54.182;7.890;2022-08-02T13:17:42;23.50;99.90
21648;DHT22;10985;54.182;7.890;2022-08-02T13:20:08;23.40;99.90
21648;DHT22;10985;54.182;7.890;2022-08-02T13:22:35;23.40;99.90
21648;DHT22;10985;54.182;7.890;2022-08-02T13:25:01;23.30;99.90
21648;DHT22;10985;54.182;7.890;2022-08-02T13:27:27;23.20;99.90
21648;DHT22;10985;54.182;7.890;2022-08-02T13:29:54;23.20;99.90
21648;DHT22;10985;54.182;7.890;2022-08-02T13:32:20;23.20;99.90
21648;DHT22;10985;54.182;7.890;2022-08-02T13:34:46;23.20;99.90
21648;DHT22;10985;54.182;7.890;2022-08-02T13:37:11;23.20;99.90
21648;DHT22;10985;54.182;7.890;2022-08-02T13:39:37;23.30;99.90
21648;DHT22;10985;54.182;7.890;2022-08-02T13:42:03;23.30;99.90
21648;DHT22;10985;54.182;7.890;2022-08-02T13:44:28;23.30;99.90
21648;DHT22;10985;54.182;7.890;2022-08-02T13:46:54;23.20;99.90
21648;DHT22;10985;54.182;7.890;2022-08-02T13:49:20;23.20;99.90
21648;DHT22;10985;54.182;7.890;2022-08-02T13:51:46;23.10;99.90
21648;DHT22;10985;54.182;7.890;2022-08-02T13:54:12;23.10;99.90
21648;DHT22;10985;54.182;7.890;2022-08-02T13:56:38;23.10;99.90
21648;DHT22;10985;54.182;7.890;2022-08-02T13:59:03;23.10;99.90
21648;DHT22;10985;54.182;7.890;2022-08-02T14:01:29;23.10;99.90
21648;DHT22;10985;54.182;7.890;2022-08-02T14:03:54;23.00;99.90
21648;DHT22;10985;54.182;7.890;2022-08-02T14:06:20;23.10;99.90
21648;DHT22;10985;54.182;7.890;2022-08-02T14:08:46;23.00;99.90
21648;DHT22;10985;54.182;7.890;2022-08-02T14:11:12;23.00;99.90
21648;DHT22;10985;54.182;7.890;2022-08-02T14:13:38;22.90;99.90
21648;DHT22;10985;54.182;7.890;2022-08-02T14:45:19;22.50;99.90
21648;DHT22;10985;54.182;7.890;2022-08-02T14:47:50;22.50;99.90
21648;DHT22;10985;54.182;7.890;2022-08-02T14:50:16;22.40;99.90
21648;DHT22;10985;54.182;7.890;2022-08-02T14:52:46;22.50;99.90
21648;DHT22;10985;54.182;7.890;2022-08-02T14:55:12;22.30;99.90
21648;DHT22;10985;54.182;7.890;2022-08-02T15:00:04;22.30;99.90
21648;DHT22;10985;54.182;7.890;2022-08-02T15:04:56;22.20;99.90
21648;DHT22;10985;54.182;7.890;2022-08-02T15:12:14;22.00;99.90
21648;DHT22;10985;54.182;7.890;2022-08-02T15:17:06;22.30;99.90
21648;DHT22;10985;54.182;7.890;2022-08-02T15:19:32;22.20;99.90
21648;DHT22;10985;54.182;7.890;2022-08-02T15:21:58;22.10;99.90
21648;DHT22;10985;54.182;7.890;2022-08-02T15:26:50;22.00;99.90
21648;DHT22;10985;54.182;7.890;2022-08-02T15:29:16;22.00;99.90
21648;DHT22;10985;54.182;7.890;2022-08-02T15:31:42;21.80;99.90
21648;DHT22;10985;54.182;7.890;2022-08-02T15:34:08;22.00;99.90
21648;DHT22;10985;54.182;7.890;2022-08-02T15:36:34;22.00;99.90
21648;DHT22;10985;54.182;7.890;2022-08-02T15:38:59;21.90;99.90
21648;DHT22;10985;54.182;7.890;2022-08-02T15:41:25;21.90;99.90
21648;DHT22;10985;54.182;7.890;2022-08-02T15:43:51;21.90;99.90
21648;DHT22;10985;54.182;7.890;2022-08-02T15:46:16;21.80;99.90
21648;DHT22;10985;54.182;7.890;2022-08-02T15:48:42;21.80;99.90
21648;DHT22;10985;54.182;7.890;2022-08-02T15:51:07;21.60;99.90
21648;DHT22;10985;54.182;7.890;2022-08-02T15:53:33;21.70;99.90
21648;DHT22;10985;54.182;7.890;2022-08-02T15:55:58;21.70;99.90
21648;DHT22;10985;54.182;7.890;2022-08-02T15:58:24;21.60;99.90
21648;DHT22;10985;54.182;7.890;2022-08-02T16:00:50;21.60;99.90
21648;DHT22;10985;54.182;7.890;2022-08-02T16:03:16;21.50;99.90
21648;DHT22;10985;54.182;7.890;2022-08-02T16:05:46;21.50;99.90
21648;DHT22;10985;54.182;7.890;2022-08-02T16:08:23;21.50;99.90
21648;DHT22;10985;54.182;7.890;2022-08-02T16:10:52;21.50;99.90
21648;DHT22;10985;54.182;7.890;2022-08-02T16:13:23;21.50;99.90
21648;DHT22;10985;54.182;7.890;2022-08-02T16:16:18;21.50;99.90
21648;DHT22;10985;54.182;7.890;2022-08-02T16:18:49;21.60;99.90
21648;DHT22;10985;54.182;7.890;2022-08-02T16:21:17;21.60;99.90
21648;DHT22;10985;54.182;7.890;2022-08-02T16:23:43;21.90;99.90
21648;DHT22;10985;54.182;7.890;2022-08-02T16:26:09;21.70;99.90
21648;DHT22;10985;54.182;7.890;2022-08-02T16:28:35;21.70;99.90
21648;DHT22;10985;54.182;7.890;2022-08-02T16:31:01;21.80;99.90
21648;DHT22;10985;54.182;7.890;2022-08-02T16:33:26;21.80;99.90
21648;DHT22;10985;54.182;7.890;2022-08-02T16:35:52;21.90;99.90
21648;DHT22;10985;54.182;7.890;2022-08-02T16:38:18;21.90;99.90
21648;DHT22;10985;54.182;7.890;2022-08-02T16:40:43;21.90;99.90
21648;DHT22;10985;54.182;7.890;2022-08-02T16:43:09;21.90;99.90
21648;DHT22;10985;54.182;7.890;2022-08-02T16:45:34;21.90;99.90
21648;DHT22;10985;54.182;7.890;2022-08-02T16:48:00;21.70;99.90
21648;DHT22;10985;54.182;7.890;2022-08-02T16:50:26;21.90;99.90
21648;DHT22;10985;54.182;7.890;2022-08-02T16:52:54;21.90;99.90
21648;DHT22;10985;54.182;7.890;2022-08-02T16:55:19;21.90;99.90
21648;DHT22;10985;54.182;7.890;2022-08-02T16:57:45;20.50;99.90
21648;DHT22;10985;54.182;7.890;2022-08-02T17:00:12;21.90;99.90
21648;DHT22;10985;54.182;7.890;2022-08-02T17:02:38;21.90;99.90
21648;DHT22;10985;54.182;7.890;2022-08-02T17:05:05;21.90;99.90
21648;DHT22;10985;54.182;7.890;2022-08-02T17:07:31;21.90;99.90
21648;DHT22;10985;54.182;7.890;2022-08-02T17:09:56;21.80;99.90
21648;DHT22;10985;54.182;7.890;2022-08-02T17:12:22;21.90;99.90
21648;DHT22;10985;54.182;7.890;2022-08-02T17:14:48;21.80;99.90
21648;DHT22;10985;54.182;7.890;2022-08-02T17:17:14;21.90;99.90
21648;DHT22;10985;54.182;7.890;2022-08-02T17:19:40;21.80;99.90
21648;DHT22;10985;54.182;7.890;2022-08-02T17:22:06;21.80;99.90
21648;DHT22;10985;54.182;7.890;2022-08-02T17:24:31;21.80;99.90
21648;DHT22;10985;54.182;7.890;2022-08-02T17:26:57;21.70;99.90
21648;DHT22;10985;54.182;7.890;2022-08-02T17:29:22;21.70;99.90
21648;DHT22;10985;54.182;7.890;2022-08-02T17:31:49;21.70;99.90
21648;DHT22;10985;54.182;7.890;2022-08-02T17:34:14;21.70;99.90
21648;DHT22;10985;54.182;7.890;2022-08-02T17:36:40;21.70;99.90
21648;DHT22;10985;54.182;7.890;2022-08-02T17:39:06;21.70;99.90
21648;DHT22;10985;54.182;7.890;2022-08-02T17:41:32;21.70;99.90
21648;DHT22;10985;54.182;7.890;2022-08-02T17:43:57;21.70;99.90
21648;DHT22;10985;54.182;7.890;2022-08-02T17:46:23;21.70;99.90
21648;DHT22;10985;54.182;7.890;2022-08-02T17:48:49;21.70;99.90
21648;DHT22;10985;54.182;7.890;2022-08-02T17:51:32;21.70;99.90
21648;DHT22;10985;54.182;7.890;2022-08-02T17:53:58;21.70;99.90
21648;DHT22;10985;54.182;7.890;2022-08-02T17:56:24;21.70;99.90
21648;DHT22;10985;54.182;7.890;2022-08-02T17:58:49;21.70;99.90
21648;DHT22;10985;54.182;7.890;2022-08-02T18:01:15;21.70;99.90
21648;DHT22;10985;54.182;7.890;2022-08-02T18:03:40;21.70;99.90
21648;DHT22;10985;54.182;7.890;2022-08-02T18:06:06;21.70;99.90
21648;DHT22;10985;54.182;7.890;2022-08-02T18:08:31;21.70;99.90
21648;DHT22;10985;54.182;7.890;2022-08-02T18:10:57;21.70;99.90
21648;DHT22;10985;54.182;7.890;2022-08-02T18:13:23;21.60;99.90
21648;DHT22;10985;54.182;7.890;2022-08-02T18:15:50;21.60;99.90
21648;DHT22;10985;54.182;7.890;2022-08-02T18:18:19;21.60;99.90
21648;DHT22;10985;54.182;7.890;2022-08-02T18:20:45;21.60;99.90
21648;DHT22;10985;54.182;7.890;2022-08-02T18:23:11;21.50;99.90
21648;DHT22;10985;54.182;7.890;2022-08-02T18:25:36;21.50;99.90
21648;DHT22;10985;54.182;7.890;2022-08-02T18:28:02;21.50;99.90
21648;DHT22;10985;54.182;7.890;2022-08-02T18:30:27;21.50;99.90
21648;DHT22;10985;54.182;7.890;2022-08-02T18:32:53;21.50;99.90
21648;DHT22;10985;54.182;7.890;2022-08-02T18:35:20;21.40;99.90
21648;DHT22;10985;54.182;7.890;2022-08-02T18:37:47;21.40;99.90
21648;DHT22;10985;54.182;7.890;2022-08-02T18:40:13;21.40;99.90
21648;DHT22;10985;54.182;7.890;2022-08-02T18:42:39;21.40;99.90
21648;DHT22;10985;54.182;7.890;2022-08-02T18:45:05;21.40;99.90
21648;DHT22;10985;54.182;7.890;2022-08-02T18:47:31;21.40;99.90
21648;DHT22;10985;54.182;7.890;2022-08-02T18:49:56;21.30;99.90
21648;DHT22;10985;54.182;7.890;2022-08-02T18:52:22;21.30;99.90
21648;DHT22;10985;54.182;7.890;2022-08-02T18:54:48;21.30;99.90
21648;DHT22;10985;54.182;7.890;2022-08-02T18:57:13;21.20;99.90
21648;DHT22;10985;54.182;7.890;2022-08-02T18:59:39;21.20;99.90
21648;DHT22;10985;54.182;7.890;2022-08-02T19:02:05;21.10;99.90
21648;DHT22;10985;54.182;7.890;2022-08-02T19:04:30;21.10;99.90
21648;DHT22;10985;54.182;7.890;2022-08-02T19:06:56;21.10;99.90
21648;DHT22;10985;54.182;7.890;2022-08-02T19:09:23;21.00;99.90
21648;DHT22;10985;54.182;7.890;2022-08-02T19:11:48;21.00;99.90
21648;DHT22;10985;54.182;7.890;2022-08-02T19:14:14;21.00;99.90
21648;DHT22;10985;54.182;7.890;2022-08-02T19:16:41;21.00;99.90
21648;DHT22;10985;54.182;7.890;2022-08-02T19:19:06;20.90;99.90
21648;DHT22;10985;54.182;7.890;2022-08-02T19:21:32;20.80;99.90
21648;DHT22;10985;54.182;7.890;2022-08-02T19:23:57;20.80;99.90
21648;DHT22;10985;54.182;7.890;2022-08-02T19:26:23;20.70;99.90
21648;DHT22;10985;54.182;7.890;2022-08-02T19:28:48;20.70;99.90
21648;DHT22;10985;54.182;7.890;2022-08-02T19:31:14;20.60;99.90
21648;DHT22;10985;54.182;7.890;2022-08-02T19:33:39;20.70;99.90
21648;DHT22;10985;54.182;7.890;2022-08-02T19:36:05;20.60;99.90
21648;DHT22;10985;54.182;7.890;2022-08-02T19:38:31;20.50;99.90
21648;DHT22;10985;54.182;7.890;2022-08-02T19:40:57;20.50;99.90
21648;DHT22;10985;54.182;7.890;2022-08-02T19:43:24;20.40;99.90
21648;DHT22;10985;54.182;7.890;2022-08-02T19:45:52;20.40;99.90
21648;DHT22;10985;54.182;7.890;2022-08-02T19:48:18;20.40;99.90
21648;DHT22;10985;54.182;7.890;2022-08-02T19:50:44;20.40;99.90
21648;DHT22;10985;54.182;7.890;2022-08-02T19:53:10;20.40;99.90
21648;DHT22;10985;54.182;7.890;2022-08-02T19:55:35;20.30;99.90
21648;DHT22;10985;54.182;7.890;2022-08-02T19:58:01;20.30;99.90
21648;DHT22;10985;54.182;7.890;2022-08-02T20:00:28;20.20;99.90
21648;DHT22;10985;54.182;7.890;2022-08-02T20:02:53;20.20;99.90
21648;DHT22;10985;54.182;7.890;2022-08-02T20:05:19;20.20;99.90
21648;DHT22;10985;54.182;7.890;2022-08-02T20:07:44;20.20;99.90
21648;DHT22;10985;54.182;7.890;2022-08-02T20:10:12;20.10;99.90
21648;DHT22;10985;54.182;7.890;2022-08-02T20:12:38;20.00;99.90
21648;DHT22;10985;54.182;7.890;2022-08-02T20:15:04;20.00;99.90
21648;DHT22;10985;54.182;7.890;2022-08-02T20:17:30;20.00;99.90
21648;DHT22;10985;54.182;7.890;2022-08-02T20:19:58;20.00;99.90
21648;DHT22;10985;54.182;7.890;2022-08-02T20:22:23;19.90;99.90
21648;DHT22;10985;54.182;7.890;2022-08-02T20:24:49;20.00;99.90
21648;DHT22;10985;54.182;7.890;2022-08-02T20:27:14;19.90;99.90
21648;DHT22;10985;54.182;7.890;2022-08-02T20:29:41;19.90;99.90
21648;DHT22;10985;54.182;7.890;2022-08-02T20:32:06;19.90;99.90
21648;DHT22;10985;54.182;7.890;2022-08-02T20:34:32;19.80;99.90
21648;DHT22;10985;54.182;7.890;2022-08-02T20:36:58;19.80;99.90
21648;DHT22;10985;54.182;7.890;2022-08-02T20:39:24;19.80;99.90
21648;DHT22;10985;54.182;7.890;2022-08-02T20:41:49;19.80;99.90
21648;DHT22;10985;54.182;7.890;2022-08-02T20:44:15;19.80;99.90
21648;DHT22;10985;54.182;7.890;2022-08-02T20:46:42;19.70;99.90
21648;DHT22;10985;54.182;7.890;2022-08-02T20:49:07;19.70;99.90
21648;DHT22;10985;54.182;7.890;2022-08-02T20:51:33;19.70;99.90
21648;DHT22;10985;54.182;7.890;2022-08-02T20:53:58;19.70;99.90
21648;DHT22;10985;54.182;7.890;2022-08-02T20:56:24;19.70;99.90
21648;DHT22;10985;54.182;7.890;2022-08-02T20:58:50;19.70;99.90
21648;DHT22;10985;54.182;7.890;2022-08-02T21:01:15;19.70;99.90
21648;DHT22;10985;54.182;7.890;2022-08-02T21:03:41;19.70;99.90
21648;DHT22;10985;54.182;7.890;2022-08-02T21:06:08;19.70;99.90
21648;DHT22;10985;54.182;7.890;2022-08-02T21:08:33;19.60;99.90
21648;DHT22;10985;54.182;7.890;2022-08-02T21:10:59;19.60;99.90
21648;DHT22;10985;54.182;7.890;2022-08-02T21:13:25;19.60;99.90
21648;DHT22;10985;54.182;7.890;2022-08-02T21:15:51;19.60;99.90
21648;DHT22;10985;54.182;7.890;2022-08-02T21:18:17;19.60;99.90
21648;DHT22;10985;54.182;7.890;2022-08-02T21:20:43;19.60;99.90
21648;DHT22;10985;54.182;7.890;2022-08-02T21:23:08;19.60;99.90
21648;DHT22;10985;54.182;7.890;2022-08-02T21:25:34;19.50;99.90
21648;DHT22;10985;54.182;7.890;2022-08-02T21:27:59;19.60;99.90
21648;DHT22;10985;54.182;7.890;2022-08-02T21:30:25;19.60;99.90
21648;DHT22;10985;54.182;7.890;2022-08-02T21:32:51;19.60;99.90
21648;DHT22;10985;54.182;7.890;2022-08-02T21:35:22;19.50;99.90
21648;DHT22;10985;54.182;7.890;2022-08-02T21:37:49;19.60;99.90
21648;DHT22;10985;54.182;7.890;2022-08-02T21:40:16;19.60;99.90
21648;DHT22;10985;54.182;7.890;2022-08-02T21:42:41;19.50;99.90
21648;DHT22;10985;54.182;7.890;2022-08-02T21:45:07;19.50;99.90
21648;DHT22;10985;54.182;7.890;2022-08-02T21:47:33;19.50;99.90
21648;DHT22;10985;54.182;7.890;2022-08-02T21:49:58;19.50;99.90
21648;DHT22;10985;54.182;7.890;2022-08-02T21:52:25;19.50;99.90
21648;DHT22;10985;54.182;7.890;2022-08-02T21:54:51;19.50;99.90
21648;DHT22;10985;54.182;7.890;2022-08-02T21:57:17;19.50;99.90
21648;DHT22;10985;54.182;7.890;2022-08-02T21:59:47;19.50;99.90
21648;DHT22;10985;54.182;7.890;2022-08-02T22:02:14;19.50;99.90
21648;DHT22;10985;54.182;7.890;2022-08-02T22:04:40;19.40;99.90
21648;DHT22;10985;54.182;7.890;2022-08-02T22:07:06;19.50;99.90
21648;DHT22;10985;54.182;7.890;2022-08-02T22:09:32;19.50;99.90
21648;DHT22;10985;54.182;7.890;2022-08-02T22:11:57;19.50;99.90
21648;DHT22;10985;54.182;7.890;2022-08-02T22:14:23;19.50;99.90
21648;DHT22;10985;54.182;7.890;2022-08-02T22:16:48;19.50;99.90
21648;DHT22;10985;54.182;7.890;2022-08-02T22:19:14;19.40;99.90
21648;DHT22;10985;54.182;7.890;2022-08-02T22:21:40;19.40;99.90
21648;DHT22;10985;54.182;7.890;2022-08-02T22:24:05;19.40;99.90
21648;DHT22;10985;54.182;7.890;2022-08-02T22:26:33;19.40;99.90
21648;DHT22;10985;54.182;7.890;2022-08-02T22:28:59;19.40;99.90
21648;DHT22;10985;54.182;7.890;2022-08-02T22:31:24;19.40;99.90
21648;DHT22;10985;54.182;7.890;2022-08-02T22:33:50;19.40;99.90
21648;DHT22;10985;54.182;7.890;2022-08-02T22:36:33;19.40;99.90
21648;DHT22;10985;54.182;7.890;2022-08-02T22:38:59;19.40;99.90
21648;DHT22;10985;54.182;7.890;2022-08-02T22:41:25;19.40;99.90
21648;DHT22;10985;54.182;7.890;2022-08-02T22:43:51;19.30;99.90
21648;DHT22;10985;54.182;7.890;2022-08-02T22:46:17;19.30;99.90
21648;DHT22;10985;54.182;7.890;2022-08-02T22:48:43;19.30;99.90
21648;DHT22;10985;54.182;7.890;2022-08-02T22:51:08;19.30;99.90
21648;DHT22;10985;54.182;7.890;2022-08-02T22:53:34;19.30;99.90
21648;DHT22;10985;54.182;7.890;2022-08-02T22:55:59;19.30;99.90
21648;DHT22;10985;54.182;7.890;2022-08-02T22:58:25;19.30;99.90
21648;DHT22;10985;54.182;7.890;2022-08-02T23:00:50;19.30;99.90
21648;DHT22;10985;54.182;7.890;2022-08-02T23:03:16;19.30;99.90
21648;DHT22;10985;54.182;7.890;2022-08-02T23:05:41;19.30;99.90
21648;DHT22;10985;54.182;7.890;2022-08-02T23:08:07;19.30;99.90
21648;DHT22;10985;54.182;7.890;2022-08-02T23:10:32;19.30;99.90
21648;DHT22;10985;54.182;7.890;2022-08-02T23:12:58;19.30;99.90
21648;DHT22;10985;54.182;7.890;2022-08-02T23:15:25;19.30;99.90
21648;DHT22;10985;54.182;7.890;2022-08-02T23:17:50;19.30;99.90
21648;DHT22;10985;54.182;7.890;2022-08-02T23:20:34;19.30;99.90
21648;DHT22;10985;54.182;7.890;2022-08-02T23:23:00;19.30;99.90
21648;DHT22;10985;54.182;7.890;2022-08-02T23:25:26;19.30;99.90
21648;DHT22;10985;54.182;7.890;2022-08-02T23:27:51;19.40;99.90
21648;DHT22;10985;54.182;7.890;2022-08-02T23:30:18;19.30;99.90
21648;DHT22;10985;54.182;7.890;2022-08-02T23:32:43;19.30;99.90
21648;DHT22;10985;54.182;7.890;2022-08-02T23:35:09;19.30;99.90
21648;DHT22;10985;54.182;7.890;2022-08-02T23:37:35;19.40;99.90
21648;DHT22;10985;54.182;7.890;2022-08-02T23:40:00;19.40;99.90
21648;DHT22;10985;54.182;7.890;2022-08-02T23:42:26;19.40;99.90
21648;DHT22;10985;54.182;7.890;2022-08-02T23:44:52;19.40;99.90
21648;DHT22;10985;54.182;7.890;2022-08-02T23:47:18;19.50;99.90
21648;DHT22;10985;54.182;7.890;2022-08-02T23:49:44;19.50;99.90
21648;DHT22;10985;54.182;7.890;2022-08-02T23:52:10;19.50;99.90
21648;DHT22;10985;54.182;7.890;2022-08-02T23:54:35;19.50;99.90
21648;DHT22;10985;54.182;7.890;2022-08-02T23:57:01;19.50;99.90
21648;DHT22;10985;54.182;7.890;2022-08-02T23:59:26;19.50;99.90
